Time,TemperatureF,DewpointF,PressureIn,WindDirection,WindDirectionDegrees,WindSpeedMPH,WindSpeedGustMPH,Humidity,HourlyPrecipIn,Conditions,Clouds,dailyrainin,SoftwareType,DateUTC
2013-04-10 00:12:00,50.9,45.0,30.22,SSE,158,2.0,3.0,80,0.00,,,0.00,weatherlink.com 1.10,2013-04-10 07:12:00,
2013-04-10 00:27:00,51.2,45.0,30.23,ESE,123,0.0,5.0,78,0.00,,,0.00,weatherlink.com 1.10,2013-04-10 07:27:00,
2013-04-10 00:42:00,51.5,45.0,30.23,ESE,103,4.0,4.0,77,0.00,,,0.00,weatherlink.com 1.10,2013-04-10 07:42:00,
2013-04-10 00:57:00,51.4,44.0,30.22,ENE,68,0.0,4.0,77,0.00,,,0.00,weatherlink.com 1.10,2013-04-10 07:57:00,
2013-04-10 01:12:00,51.0,45.0,30.22,ESE,108,0.0,3.0,79,0.00,,,0.00,weatherlink.com 1.10,2013-04-10 08:12:00,
2013-04-10 01:27:00,51.3,44.0,30.21,South,169,2.0,8.0,77,0.00,,,0.00,weatherlink.com 1.10,2013-04-10 08:27:00,
2013-04-10 01:42:00,50.9,45.0,30.21,SW,235,4.0,4.0,79,0.00,,,0.00,weatherlink.com 1.10,2013-04-10 08:42:00,
2013-04-10 01:57:00,50.9,44.0,30.21,SSE,148,0.0,3.0,78,0.00,,,0.00,weatherlink.com 1.10,2013-04-10 08:57:00,
2013-04-10 02:12:00,51.5,45.0,30.20,SW,229,0.0,5.0,77,0.00,,,0.00,weatherlink.com 1.10,2013-04-10 09:12:00,
2013-04-10 02:27:00,51.3,44.0,30.19,East,86,3.0,4.0,77,0.00,,,0.00,weatherlink.com 1.10,2013-04-10 09:27:00,
2013-04-10 02:42:00,51.6,44.0,30.19,ESE,117,1.0,6.0,75,0.00,,,0.00,weatherlink.com 1.10,2013-04-10 09:42:00,
2013-04-10 02:57:00,51.5,44.0,30.19,SE,143,0.0,6.0,75,0.00,,,0.00,weatherlink.com 1.10,2013-04-10 09:57:00,
2013-04-10 03:12:00,51.5,44.0,30.18,SSE,150,2.0,4.0,75,0.00,,,0.00,weatherlink.com 1.10,2013-04-10 10:12:00,
2013-04-10 03:27:00,51.6,44.0,30.18,SE,135,2.0,7.0,76,0.00,,,0.00,weatherlink.com 1.10,2013-04-10 10:27:00,
2013-04-10 03:42:00,51.7,45.0,30.18,SE,134,2.0,3.0,77,0.00,,,0.00,weatherlink.com 1.10,2013-04-10 10:42:00,
2013-04-10 03:57:00,51.6,45.0,30.18,SE,144,1.0,4.0,77,0.00,,,0.00,weatherlink.com 1.10,2013-04-10 10:57:00,
2013-04-10 04:12:00,51.5,45.0,30.17,South,180,3.0,6.0,77,0.00,,,0.00,weatherlink.com 1.10,2013-04-10 11:12:00,
2013-04-10 04:27:00,51.4,45.0,30.17,SE,131,2.0,5.0,78,0.00,,,0.00,weatherlink.com 1.10,2013-04-10 11:27:00,
2013-04-10 04:42:00,51.3,45.0,30.16,SE,136,2.0,6.0,79,0.00,,,0.00,weatherlink.com 1.10,2013-04-10 11:42:00,
2013-04-10 04:57:00,51.1,45.0,30.16,SE,142,2.0,5.0,80,0.00,,,0.00,weatherlink.com 1.10,2013-04-10 11:57:00,
2013-04-10 05:13:00,51.0,45.0,30.16,SE,143,2.0,6.0,81,0.00,,,0.00,weatherlink.com 1.10,2013-04-10 12:13:00,
2013-04-10 05:28:00,50.9,46.0,30.16,SSE,155,5.0,5.0,82,0.00,,,0.00,weatherlink.com 1.10,2013-04-10 12:28:00,
2013-04-10 05:43:00,50.7,46.0,30.15,SE,140,2.0,5.0,83,0.00,,,0.00,weatherlink.com 1.10,2013-04-10 12:43:00,
2013-04-10 05:58:00,50.8,46.0,30.15,ESE,113,2.0,7.0,83,0.00,,,0.00,weatherlink.com 1.10,2013-04-10 12:58:00,
2013-04-10 06:13:00,50.8,46.0,30.14,SE,146,1.0,5.0,84,0.00,,,0.00,weatherlink.com 1.10,2013-04-10 13:13:00,
2013-04-10 06:28:00,50.6,46.0,30.13,SE,136,3.0,7.0,84,0.00,,,0.00,weatherlink.com 1.10,2013-04-10 13:28:00,
2013-04-10 06:43:00,50.5,46.0,30.12,SE,135,1.0,5.0,84,0.00,,,0.00,weatherlink.com 1.10,2013-04-10 13:43:00,
2013-04-10 06:58:00,50.4,46.0,30.12,ESE,119,2.0,9.0,84,0.00,,,0.00,weatherlink.com 1.10,2013-04-10 13:58:00,
2013-04-10 07:13:00,50.6,46.0,30.12,ESE,107,7.0,7.0,84,0.00,,,0.00,weatherlink.com 1.10,2013-04-10 14:13:00,
2013-04-10 07:28:00,50.8,46.0,30.11,SE,134,2.0,6.0,84,0.00,,,0.00,weatherlink.com 1.10,2013-04-10 14:28:00,
2013-04-10 07:43:00,51.0,46.0,30.10,ESE,120,5.0,10.0,84,0.00,,,0.00,weatherlink.com 1.10,2013-04-10 14:43:00,
2013-04-10 07:58:00,51.0,46.0,30.10,SSE,155,4.0,11.0,84,0.00,,,0.00,weatherlink.com 1.10,2013-04-10 14:58:00,
2013-04-10 08:13:00,50.7,46.0,30.09,SE,127,3.0,9.0,85,0.00,,,0.00,weatherlink.com 1.10,2013-04-10 15:13:00,
2013-04-10 08:28:00,50.9,47.0,30.08,East,96,3.0,8.0,85,0.00,,,0.00,weatherlink.com 1.10,2013-04-10 15:28:00,
2013-04-10 08:43:00,51.1,47.0,30.09,SE,124,4.0,8.0,86,0.00,,,0.00,weatherlink.com 1.10,2013-04-10 15:43:00,
2013-04-10 08:58:00,51.1,47.0,30.08,WNW,299,4.0,11.0,86,0.00,,,0.00,weatherlink.com 1.10,2013-04-10 15:58:00,
2013-04-10 09:13:00,51.1,47.0,30.09,East,100,2.0,11.0,86,0.00,,,0.00,weatherlink.com 1.10,2013-04-10 16:13:00,
2013-04-10 09:28:00,50.4,47.0,30.09,SSE,147,2.0,10.0,89,0.01,,,0.01,weatherlink.com 1.10,2013-04-10 16:28:00,
2013-04-10 09:43:00,49.7,48.0,30.09,ESE,113,3.0,4.0,92,0.03,,,0.03,weatherlink.com 1.10,2013-04-10 16:43:00,
2013-04-10 09:58:00,49.5,48.0,30.09,ESE,110,1.0,5.0,94,0.05,,,0.05,weatherlink.com 1.10,2013-04-10 16:58:00,
2013-04-10 10:13:00,49.6,48.0,30.11,SSE,152,3.0,6.0,95,0.05,,,0.05,weatherlink.com 1.10,2013-04-10 17:13:00,
2013-04-10 10:43:00,50.0,49.0,30.12,SE,139,0.0,7.0,95,0.09,,,0.12,weatherlink.com 1.10,2013-04-10 17:43:00,
2013-04-10 10:58:00,50.2,49.0,30.13,South,169,2.0,4.0,96,0.09,,,0.14,weatherlink.com 1.10,2013-04-10 17:58:00,
2013-04-10 11:13:00,50.5,49.0,30.13,ESE,117,0.0,5.0,96,0.10,,,0.15,weatherlink.com 1.10,2013-04-10 18:13:00,
2013-04-10 11:28:00,50.9,50.0,30.13,East,95,2.0,3.0,97,0.06,,,0.15,weatherlink.com 1.10,2013-04-10 18:28:00,
2013-04-10 11:43:00,51.2,50.0,30.14,SW,229,1.0,7.0,97,0.04,,,0.16,weatherlink.com 1.10,2013-04-10 18:43:00,
2013-04-10 11:58:00,51.4,51.0,30.14,West,274,3.0,4.0,97,0.06,,,0.20,weatherlink.com 1.10,2013-04-10 18:58:00,
2013-04-10 12:13:00,50.9,50.0,30.16,NNW,340,1.0,13.0,95,0.09,,,0.24,weatherlink.com 1.10,2013-04-10 19:13:00,
2013-04-10 12:28:00,50.6,49.0,30.17,West,262,5.0,16.0,93,0.09,,,0.24,weatherlink.com 1.10,2013-04-10 19:28:00,
2013-04-10 12:43:00,50.1,48.0,30.17,West,273,2.0,17.0,91,0.08,,,0.24,weatherlink.com 1.10,2013-04-10 19:43:00,
2013-04-10 12:58:00,50.2,47.0,30.18,WNW,285,13.0,20.0,89,0.04,,,0.24,weatherlink.com 1.10,2013-04-10 19:58:00,
2013-04-10 13:13:00,50.4,47.0,30.18,NNW,332,7.0,15.0,87,0.00,,,0.24,weatherlink.com 1.10,2013-04-10 20:13:00,
2013-04-10 13:28:00,50.6,47.0,30.20,West,278,3.0,11.0,86,0.00,,,0.24,weatherlink.com 1.10,2013-04-10 20:28:00,
2013-04-10 13:43:00,50.7,47.0,30.21,NNW,345,1.0,8.0,87,0.00,,,0.24,weatherlink.com 1.10,2013-04-10 20:43:00,
2013-04-10 13:58:00,51.3,47.0,30.22,WNW,287,3.0,11.0,86,0.00,,,0.24,weatherlink.com 1.10,2013-04-10 20:58:00,
2013-04-10 14:13:00,51.2,47.0,30.23,West,275,10.0,11.0,84,0.00,,,0.24,weatherlink.com 1.10,2013-04-10 21:13:00,
2013-04-10 14:28:00,51.3,46.0,30.23,West,267,3.0,8.0,83,0.00,,,0.24,weatherlink.com 1.10,2013-04-10 21:28:00,
2013-04-10 14:43:00,51.5,46.0,30.24,West,280,3.0,15.0,80,0.00,,,0.24,weatherlink.com 1.10,2013-04-10 21:43:00,
2013-04-10 14:58:00,52.3,46.0,30.24,WNW,282,5.0,9.0,80,0.00,,,0.24,weatherlink.com 1.10,2013-04-10 21:58:00,
2013-04-10 15:14:00,52.6,47.0,30.24,NW,309,3.0,13.0,80,0.00,,,0.24,weatherlink.com 1.10,2013-04-10 22:14:00,
2013-04-10 15:29:00,52.7,46.0,30.24,WNW,300,6.0,17.0,78,0.00,,,0.24,weatherlink.com 1.10,2013-04-10 22:29:00,
2013-04-10 15:44:00,53.2,46.0,30.24,West,264,9.0,14.0,76,0.00,,,0.24,weatherlink.com 1.10,2013-04-10 22:44:00,
2013-04-10 15:59:00,54.4,46.0,30.24,NW,314,4.0,12.0,73,0.00,,,0.24,weatherlink.com 1.10,2013-04-10 22:59:00,
2013-04-10 16:14:00,54.0,46.0,30.23,NW,307,5.0,15.0,73,0.00,,,0.24,weatherlink.com 1.10,2013-04-10 23:14:00,
2013-04-10 16:29:00,53.6,45.0,30.23,West,263,2.0,16.0,72,0.00,,,0.24,weatherlink.com 1.10,2013-04-10 23:29:00,
2013-04-10 16:44:00,53.2,44.0,30.22,WNW,302,9.0,16.0,72,0.00,,,0.24,weatherlink.com 1.10,2013-04-10 23:44:00,
2013-04-10 16:59:00,52.2,44.0,30.23,NW,307,3.0,12.0,74,0.00,,,0.24,weatherlink.com 1.10,2013-04-10 23:59:00,
2013-04-10 17:14:00,52.4,44.0,30.22,West,278,5.0,13.0,73,0.00,,,0.24,weatherlink.com 1.10,2013-04-11 00:14:00,
2013-04-10 17:29:00,52.8,44.0,30.22,WNW,284,2.0,17.0,71,0.00,,,0.24,weatherlink.com 1.10,2013-04-11 00:29:00,
2013-04-10 17:44:00,51.5,43.0,30.23,NW,314,5.0,11.0,73,0.00,,,0.24,weatherlink.com 1.10,2013-04-11 00:44:00,
2013-04-10 17:59:00,51.6,43.0,30.23,West,269,7.0,15.0,73,0.00,,,0.24,weatherlink.com 1.10,2013-04-11 00:59:00,
2013-04-10 18:14:00,51.9,43.0,30.23,North,356,5.0,11.0,72,0.00,,,0.24,weatherlink.com 1.10,2013-04-11 01:14:00,
2013-04-10 18:29:00,51.0,43.0,30.23,NNW,332,7.0,18.0,73,0.00,,,0.24,weatherlink.com 1.10,2013-04-11 01:29:00,
2013-04-10 18:44:00,49.6,42.0,30.24,WNW,284,3.0,17.0,75,0.00,,,0.24,weatherlink.com 1.10,2013-04-11 01:44:00,
2013-04-10 18:59:00,48.8,42.0,30.24,NNW,330,4.0,16.0,78,0.00,,,0.24,weatherlink.com 1.10,2013-04-11 01:59:00,
2013-04-10 19:14:00,48.5,42.0,30.24,NNW,329,5.0,12.0,79,0.00,,,0.24,weatherlink.com 1.10,2013-04-11 02:14:00,
2013-04-10 19:29:00,48.1,42.0,30.24,NNW,332,5.0,8.0,79,0.00,,,0.24,weatherlink.com 1.10,2013-04-11 02:29:00,
2013-04-10 19:44:00,47.6,42.0,30.25,NW,311,3.0,6.0,81,0.00,,,0.24,weatherlink.com 1.10,2013-04-11 02:44:00,
2013-04-10 19:59:00,47.3,42.0,30.25,NNW,333,3.0,7.0,81,0.00,,,0.24,weatherlink.com 1.10,2013-04-11 02:59:00,
2013-04-10 20:15:00,47.0,42.0,30.25,NW,304,2.0,11.0,82,0.00,,,0.24,weatherlink.com 1.10,2013-04-11 03:15:00,
2013-04-10 20:45:00,46.7,42.0,30.27,NNE,30,6.0,9.0,82,0.00,,,0.24,weatherlink.com 1.10,2013-04-11 03:45:00,
2013-04-10 21:00:00,46.5,41.0,30.28,NNW,338,3.0,7.0,82,0.00,,,0.24,weatherlink.com 1.10,2013-04-11 04:00:00,
2013-04-10 21:15:00,46.5,41.0,30.29,WNW,293,1.0,6.0,82,0.00,,,0.24,weatherlink.com 1.10,2013-04-11 04:15:00,
2013-04-10 21:30:00,46.4,42.0,30.29,NW,315,2.0,8.0,83,0.00,,,0.24,weatherlink.com 1.10,2013-04-11 04:30:00,
2013-04-10 21:45:00,46.3,41.0,30.30,North,360,1.0,5.0,83,0.00,,,0.24,weatherlink.com 1.10,2013-04-11 04:45:00,
2013-04-10 22:00:00,45.3,41.0,30.30,NE,44,4.0,11.0,86,0.00,,,0.24,weatherlink.com 1.10,2013-04-11 05:00:00,
2013-04-10 22:15:00,45.0,41.0,30.30,NNW,328,1.0,7.0,87,0.00,,,0.24,weatherlink.com 1.10,2013-04-11 05:15:00,
2013-04-10 22:30:00,45.0,41.0,30.31,NNW,332,1.0,4.0,87,0.00,,,0.24,weatherlink.com 1.10,2013-04-11 05:30:00,
2013-04-10 22:45:00,45.1,42.0,30.31,NE,49,0.0,4.0,87,0.00,,,0.24,weatherlink.com 1.10,2013-04-11 05:45:00,
2013-04-10 23:00:00,45.1,42.0,30.31,NNW,337,0.0,4.0,87,0.00,,,0.24,weatherlink.com 1.10,2013-04-11 06:00:00,
2013-04-10 23:15:00,44.9,41.0,30.31,WSW,252,0.0,1.0,87,0.00,,,0.24,weatherlink.com 1.10,2013-04-11 06:15:00,
2013-04-10 23:30:00,44.8,41.0,30.31,West,273,0.0,1.0,87,0.00,,,0.24,weatherlink.com 1.10,2013-04-11 06:30:00,
2013-04-10 23:45:00,44.8,41.0,30.31,North,352,0.0,1.0,87,0.00,,,0.24,weatherlink.com 1.10,2013-04-11 06:45:00,